Time;durP1;ratioP1;P1;durP2;ratioP2;P2;SDS_P1;SDS_P2;PMS_P1;PMS_P2;Temp;Humidity;BMP_temperature;BMP_pressure;BME280_temperature;BME280_humidity;BME280_pressure;Samples;Min_cycle;Max_cycle;Signal;HPM_P1;HPM_P2
2022/07/26 00:04:44;;;;;;;2.30;0.82;;;;;;;24.61;41.08;100254.19;9909322;30;20202;-79
2022/07/26 00:09:46;;;;;;;3.47;1.00;;;;;;;24.48;41.38;100252.03;9893192;30;20696;-80
2022/07/26 00:14:49;;;;;;;2.80;0.65;;;;;;;24.61;41.79;100250.53;9907337;30;20294;-80
2022/07/26 00:20:11;;;;;;;3.40;0.57;;;;;;;24.68;41.62;100245.66;9905780;29;20259;-80
2022/07/26 00:25:13;;;;;;;2.53;0.57;;;;;;;24.51;41.39;100240.63;9905711;30;20201;-80
2022/07/26 00:30:16;;;;;;;1.55;0.50;;;;;;;24.30;42.33;100251.91;9907633;29;20363;-80
2022/07/26 00:35:19;;;;;;;3.13;0.75;;;;;;;24.65;41.45;100239.94;9910950;29;20230;-79
2022/07/26 00:40:21;;;;;;;2.10;0.40;;;;;;;24.27;42.20;100252.69;9926146;29;20255;-79
2022/07/26 00:45:24;;;;;;;4.57;0.93;;;;;;;24.00;42.95;100254.97;9878842;30;20194;-80
2022/07/26 00:50:26;;;;;;;2.63;0.60;;;;;;;23.99;43.42;100248.44;9891869;30;20269;-80
2022/07/26 00:55:28;;;;;;;2.75;0.60;;;;;;;24.24;42.56;100247.81;9891321;30;20221;-80
2022/07/26 01:00:31;;;;;;;3.05;0.63;;;;;;;24.32;42.60;100243.75;9893683;30;20235;-80
2022/07/26 01:05:34;;;;;;;2.03;0.70;;;;;;;23.95;43.65;100246.75;9908338;30;20193;-80
2022/07/26 01:10:36;;;;;;;7.40;1.15;;;;;;;23.71;44.12;100248.16;9908237;30;20252;-80
2022/07/26 01:15:39;;;;;;;3.40;1.15;;;;;;;23.60;44.77;100255.78;9912019;29;20286;-80
2022/07/26 01:20:42;;;;;;;2.67;0.77;;;;;;;25.02;41.47;100248.28;9905572;30;20201;-80
2022/07/26 01:25:45;;;;;;;3.55;0.60;;;;;;;25.11;41.40;100245.84;9922573;29;20222;-80
2022/07/26 01:30:49;;;;;;;3.72;1.00;;;;;;;24.94;41.44;100235.97;9924457;29;20233;-80
2022/07/26 01:35:52;;;;;;;5.45;1.27;;;;;;;24.86;41.83;100240.03;9913696;29;20221;-80
2022/07/26 01:40:54;;;;;;;2.20;0.80;;;;;;;24.42;43.10;100242.19;9910810;30;20209;-79
2022/07/26 01:45:56;;;;;;;4.30;0.88;;;;;;;24.22;43.74;100253.09;9896432;30;20232;-79
2022/07/26 01:50:59;;;;;;;5.73;1.33;;;;;;;24.43;43.16;100249.53;9915155;29;20231;-79
2022/07/26 01:56:02;;;;;;;5.47;0.88;;;;;;;24.72;42.65;100249.34;9928139;29;20242;-79
2022/07/26 02:01:04;;;;;;;5.20;1.25;;;;;;;24.64;42.79;100261.16;9913273;30;20201;-79
2022/07/26 02:06:07;;;;;;;2.15;0.98;;;;;;;25.00;42.11;100262.16;9907286;29;20237;-80
2022/07/26 02:11:09;;;;;;;5.85;1.25;;;;;;;24.73;42.80;100259.56;9913916;30;20213;-80
2022/07/26 02:16:13;;;;;;;4.30;0.93;;;;;;;24.59;42.92;100258.66;9898512;30;20493;-80
2022/07/26 02:21:15;;;;;;;4.57;1.08;;;;;;;24.16;43.73;100263.22;9901604;30;20504;-80
2022/07/26 02:26:18;;;;;;;5.50;2.05;;;;;;;24.08;43.91;100262.38;9907763;30;20206;-79
2022/07/26 02:31:21;;;;;;;3.80;1.30;;;;;;;24.43;43.38;100256.09;9927705;29;20229;-80
2022/07/26 02:36:28;;;;;;;3.10;1.35;;;;;;;24.27;43.62;100259.22;9910394;30;20213;-81
2022/07/26 02:41:31;;;;;;;5.97;1.70;;;;;;;24.17;44.08;100265.69;9908593;29;20201;-80
2022/07/26 02:46:33;;;;;;;6.10;1.80;;;;;;;24.52;43.71;100265.16;9906673;30;20205;-80
2022/07/26 02:51:36;;;;;;;6.10;1.60;;;;;;;24.19;44.30;100268.97;9882069;30;20261;-80
2022/07/26 02:56:38;;;;;;;8.37;1.40;;;;;;;24.01;44.89;100268.81;9911840;30;20225;-79
2022/07/26 03:01:41;;;;;;;7.00;1.55;;;;;;;24.47;43.80;100256.94;9913050;30;20206;-79
2022/07/26 03:06:43;;;;;;;6.00;1.38;;;;;;;24.20;44.43;100272.66;9896191;30;20259;-79
2022/07/26 03:11:45;;;;;;;3.10;1.00;;;;;;;24.61;43.61;100274.22;9912552;30;20202;-79
2022/07/26 03:16:48;;;;;;;2.85;1.35;;;;;;;24.48;43.76;100280.63;9912277;30;20271;-79
2022/07/26 03:21:50;;;;;;;4.50;0.82;;;;;;;23.73;45.88;100276.31;9912120;30;20603;-79
2022/07/26 03:26:52;;;;;;;2.83;1.10;;;;;;;24.50;44.17;100279.00;9906634;29;20206;-79
2022/07/26 03:31:54;;;;;;;6.50;1.33;;;;;;;23.92;48.81;100294.03;9909013;29;20240;-81
2022/07/26 03:36:57;;;;;;;3.43;0.90;;;;;;;23.08;52.23;100300.41;9895604;30;20241;-80
2022/07/26 03:41:59;;;;;;;5.57;1.15;;;;;;;23.59;53.69;100302.66;9895877;30;20274;-81
2022/07/26 03:47:01;;;;;;;4.93;1.67;;;;;;;22.58;54.40;100299.66;9910225;30;20201;-80
2022/07/26 03:52:04;;;;;;;11.70;1.80;;;;;;;23.40;53.63;100300.81;9895373;30;20262;-81
2022/07/26 03:57:06;;;;;;;8.32;2.00;;;;;;;23.03;53.78;100311.31;9909953;30;20699;-80
2022/07/26 04:02:08;;;;;;;9.10;1.90;;;;;;;23.13;52.39;100317.16;9910950;30;20588;-81
2022/07/26 04:07:11;;;;;;;5.15;1.50;;;;;;;23.65;52.08;100307.63;9877417;30;20523;-81
2022/07/26 04:12:14;;;;;;;8.68;1.80;;;;;;;23.19;53.66;100318.47;9894304;30;20600;-81
2022/07/26 04:17:16;;;;;;;4.32;1.70;;;;;;;23.52;54.48;100326.22;9910203;30;20221;-80
2022/07/26 04:22:18;;;;;;;11.25;2.72;;;;;;;22.92;55.92;100342.56;9879737;30;20559;-82
2022/07/26 04:27:20;;;;;;;10.73;2.80;;;;;;;23.57;55.93;100345.06;9887488;29;20213;-81
2022/07/26 04:32:24;;;;;;;7.60;2.67;;;;;;;23.15;59.42;100357.53;9879851;29;20246;-82
2022/07/26 04:37:26;;;;;;;10.13;2.70;;;;;;;23.53;57.53;100353.56;9894339;30;20282;-82
2022/07/26 04:42:28;;;;;;;9.27;2.83;;;;;;;23.14;58.58;100361.59;9909418;30;20201;-82
2022/07/26 04:47:31;;;;;;;5.32;2.47;;;;;;;23.72;57.53;100363.16;9909930;30;20210;-79
2022/07/26 04:52:33;;;;;;;7.20;2.73;;;;;;;23.68;57.91;100355.38;9910257;30;20660;-79
2022/07/26 04:57:35;;;;;;;6.60;2.92;;;;;;;23.10;60.13;100359.91;9909326;30;20221;-80
2022/07/26 05:02:38;;;;;;;9.37;2.70;;;;;;;22.39;62.79;100359.63;9909952;30;20201;-79
2022/07/26 05:07:41;;;;;;;8.30;2.83;;;;;;;23.33;59.38;100352.94;9911976;29;20201;-79
2022/07/26 05:12:47;;;;;;;6.82;2.45;;;;;;;22.11;63.12;100350.59;9916102;29;20688;-79
2022/07/26 05:17:50;;;;;;;8.40;2.78;;;;;;;22.97;59.93;100350.75;9914110;30;20702;-81
2022/07/26 05:22:52;;;;;;;7.87;2.20;;;;;;;23.20;58.90;100354.38;9908531;29;20231;-81
2022/07/26 05:27:54;;;;;;;7.88;2.08;;;;;;;23.24;59.04;100369.47;9909470;29;20239;-80
2022/07/26 05:32:56;;;;;;;5.50;2.20;;;;;;;23.15;58.82;100368.94;9911697;29;20264;-81
2022/07/26 05:37:59;;;;;;;4.20;2.00;;;;;;;22.72;60.31;100378.09;9876146;29;20641;-81
2022/07/26 05:43:02;;;;;;;4.75;2.17;;;;;;;23.23;59.13;100370.69;9884857;29;20286;-81
2022/07/26 05:48:04;;;;;;;5.67;2.30;;;;;;;22.39;61.03;100373.06;9908350;29;20189;-80
2022/07/26 05:53:06;;;;;;;8.82;2.35;;;;;;;23.40;57.87;100368.50;9927468;29;20202;-81
2022/07/26 05:58:09;;;;;;;6.83;2.77;;;;;;;23.42;59.07;100371.78;9910133;29;20221;-80
2022/07/26 06:03:24;;;;;;;7.57;2.17;;;;;;;23.29;58.18;100374.88;9907178;29;20248;-80
2022/07/26 06:08:26;;;;;;;11.48;4.38;;;;;;;23.29;58.25;100379.75;9913338;29;20281;-81
2022/07/26 06:13:29;;;;;;;5.80;2.07;;;;;;;23.32;57.98;100379.81;9905219;29;20680;-80
2022/07/26 06:18:31;;;;;;;8.77;3.00;;;;;;;21.99;63.09;100384.94;9926441;29;20248;-81
2022/07/26 06:23:33;;;;;;;11.80;3.13;;;;;;;21.83;64.96;100385.84;9896219;30;20209;-80
2022/07/26 06:28:38;;;;;;;12.68;3.35;;;;;;;22.20;64.11;100382.47;9909953;29;20201;-80
2022/07/26 06:33:40;;;;;;;9.25;3.90;;;;;;;22.18;63.42;100382.06;9894115;30;20265;-80
2022/07/26 06:38:42;;;;;;;12.68;4.13;;;;;;;22.19;64.27;100386.53;9877773;30;20633;-80
2022/07/26 06:43:44;;;;;;;11.13;4.30;;;;;;;22.18;62.85;100399.16;9907292;30;20218;-80
2022/07/26 06:48:48;;;;;;;11.65;4.53;;;;;;;21.81;64.14;100395.94;9886974;30;20205;-79
2022/07/26 06:53:54;;;;;;;17.27;5.10;;;;;;;22.48;62.39;100391.53;9892395;30;20202;-80
2022/07/26 06:58:56;;;;;;;12.00;5.38;;;;;;;22.49;63.41;100406.59;9891630;29;20274;-80
2022/07/26 07:03:59;;;;;;;17.13;6.10;;;;;;;22.89;62.13;100401.19;9908827;30;20202;-80
2022/07/26 07:09:01;;;;;;;13.30;7.45;;;;;;;22.63;61.28;100409.72;9893028;29;20202;-80
2022/07/26 07:14:04;;;;;;;16.05;8.82;;;;;;;23.30;59.86;100409.94;9894126;30;20201;-81
2022/07/26 07:19:06;;;;;;;21.77;9.55;;;;;;;23.07;61.13;100401.44;9907125;30;20507;-80
2022/07/26 07:24:09;;;;;;;20.13;10.40;;;;;;;22.97;59.58;100404.94;9909687;30;20242;-80
2022/07/26 07:29:13;;;;;;;19.13;10.00;;;;;;;23.13;60.86;100422.72;9905794;29;20696;-80
2022/07/26 07:34:17;;;;;;;15.15;8.77;;;;;;;23.12;59.22;100423.91;9924487;29;20589;-80
2022/07/26 07:39:20;;;;;;;14.32;10.18;;;;;;;23.02;59.27;100433.16;9916336;29;20253;-80
2022/07/26 07:44:23;;;;;;;15.95;10.25;;;;;;;23.23;58.48;100433.44;9890783;30;20213;-80
2022/07/26 07:49:25;;;;;;;20.75;10.63;;;;;;;23.47;59.04;100437.09;9902230;29;20684;-80
2022/07/26 07:54:27;;;;;;;17.67;12.90;;;;;;;23.26;59.01;100444.09;9919735;29;20237;-80
2022/07/26 07:59:30;;;;;;;13.38;10.63;;;;;;;23.59;58.15;100439.69;9887013;29;20225;-80
2022/07/26 08:04:33;;;;;;;12.65;10.80;;;;;;;23.46;57.58;100441.16;9922752;29;20484;-80
2022/07/26 08:09:35;;;;;;;22.90;11.90;;;;;;;23.66;56.86;100442.63;9883381;29;20286;-80
2022/07/26 08:14:45;;;;;;;15.95;10.95;;;;;;;24.46;54.49;100438.25;9901734;29;20286;-79
2022/07/26 08:19:47;;;;;;;13.02;8.60;;;;;;;24.83;51.76;100420.19;9905834;29;20264;-80
2022/07/26 08:24:49;;;;;;;14.90;8.80;;;;;;;25.76;49.86;100420.34;9905647;29;20282;-80
2022/07/26 08:29:51;;;;;;;15.30;7.25;;;;;;;25.59;50.62;100423.94;9907825;29;20763;-80
2022/07/26 08:34:54;;;;;;;12.32;7.40;;;;;;;26.44;47.99;100415.66;9906593;29;20232;-80
2022/07/26 08:40:16;;;;;;;13.32;5.93;;;;;;;25.79;48.47;100424.47;9922410;29;20256;-80
2022/07/26 08:45:27;;;;;;;9.77;5.70;;;;;;;25.61;48.19;100438.69;9913274;30;20239;-80
2022/07/26 08:50:29;;;;;;;12.95;6.60;;;;;;;25.85;48.30;100428.59;9914755;30;20193;-79
2022/07/26 08:55:31;;;;;;;10.50;6.78;;;;;;;26.17;47.95;100440.16;9912631;29;20229;-80
2022/07/26 09:01:08;;;;;;;10.48;6.93;;;;;;;26.47;46.55;100425.50;9902332;29;20232;-80
2022/07/26 09:06:15;;;;;;;12.05;7.30;;;;;;;26.02;46.22;100432.75;9911289;30;20266;-80
2022/07/26 09:11:23;;;;;;;13.82;7.95;;;;;;;25.33;48.70;100442.22;9913496;30;20649;-80
2022/07/26 09:16:26;;;;;;;10.63;7.53;;;;;;;24.76;50.89;100463.06;9925895;29;20248;-81
2022/07/26 09:21:35;;;;;;;16.67;9.48;;;;;;;24.83;54.72;100465.97;9910904;29;20290;-83
2022/07/26 09:26:37;;;;;;;10.18;7.43;;;;;;;24.07;57.10;100477.03;9912193;29;20201;-83
2022/07/26 09:31:39;;;;;;;11.18;7.43;;;;;;;25.03;55.52;100468.19;9891974;29;20294;-83
2022/07/26 09:36:50;;;;;;;10.40;7.20;;;;;;;25.21;55.14;100462.59;9925654;29;20769;-80
2022/07/26 09:41:53;;;;;;;9.77;8.30;;;;;;;26.22;55.54;100464.72;9911348;30;20205;-81
2022/07/26 09:47:16;;;;;;;11.57;6.80;;;;;;;25.82;52.27;100469.53;9911305;29;20193;-81
2022/07/26 09:52:20;;;;;;;10.80;6.03;;;;;;;25.77;51.83;100461.28;9906843;29;20240;-81
2022/07/26 09:57:23;;;;;;;7.97;5.18;;;;;;;25.87;51.80;100468.28;9906245;29;20326;-82
2022/07/26 10:02:25;;;;;;;6.95;4.32;;;;;;;26.00;50.75;100470.38;9910121;30;20209;-83
2022/07/26 10:07:27;;;;;;;10.20;5.57;;;;;;;26.39;52.08;100484.03;9894510;30;20206;-82
2022/07/26 10:12:31;;;;;;;9.30;5.10;;;;;;;26.24;49.61;100479.47;9897955;30;20197;-82
2022/07/26 10:17:39;;;;;;;6.82;4.53;;;;;;;26.59;48.98;100473.84;9897739;30;20484;-79
2022/07/26 10:22:44;;;;;;;6.53;3.90;;;;;;;27.23;47.34;100470.97;9908624;30;20275;-80
2022/07/26 10:27:46;;;;;;;10.00;3.13;;;;;;;26.89;45.54;100475.47;9908403;29;20201;-80
2022/07/26 10:33:09;;;;;;;7.18;3.58;;;;;;;26.92;46.34;100474.66;9910320;29;20233;-79
2022/07/26 10:38:22;;;;;;;6.88;3.88;;;;;;;26.38;45.49;100480.34;9893894;30;20260;-80
2022/07/26 10:43:25;;;;;;;7.72;4.32;;;;;;;26.46;45.52;100489.81;9908680;30;20593;-81
2022/07/26 10:49:05;;;;;;;4.50;2.70;;;;;;;25.93;45.79;100509.66;9906220;29;20635;-83
2022/07/26 10:54:10;;;;;;;2.30;1.13;;;;;;;24.09;51.05;100538.28;9907790;29;20197;-82
2022/07/26 10:59:13;;;;;;;4.22;1.20;;;;;;;24.42;51.23;100546.00;9906923;30;20323;-81
2022/07/26 11:04:34;;;;;;;2.97;1.10;;;;;;;24.59;51.33;100539.69;9907493;29;20258;-81
2022/07/26 11:09:37;;;;;;;4.43;2.10;;;;;;;24.82;50.48;100550.94;9907453;30;20201;-80
2022/07/26 11:14:39;;;;;;;3.38;2.92;;;;;;;25.00;49.06;100548.25;9893143;30;20620;-81
2022/07/26 11:19:49;;;;;;;4.75;2.35;;;;;;;24.33;50.73;100554.06;9908033;30;20225;-82
2022/07/26 11:24:51;;;;;;;4.32;2.60;;;;;;;24.53;50.27;100557.53;9909238;30;20294;-82
2022/07/26 11:29:54;;;;;;;3.25;2.80;;;;;;;25.18;47.70;100557.84;9892133;29;20595;-81
2022/07/26 11:35:03;;;;;;;7.57;3.30;;;;;;;26.05;45.78;100553.13;9907870;29;20233;-82
2022/07/26 11:40:06;;;;;;;5.35;2.55;;;;;;;25.74;45.80;100550.88;9921067;29;20245;-81
2022/07/26 11:45:09;;;;;;;3.50;2.20;;;;;;;24.82;48.33;100559.53;9907988;30;20484;-81
2022/07/26 11:50:11;;;;;;;2.33;0.80;;;;;;;25.62;47.18;100556.94;9905336;30;20274;-81
2022/07/26 11:55:30;;;;;;;2.05;0.98;;;;;;;25.09;48.67;100583.06;9903691;29;20692;-81
2022/07/26 12:00:32;;;;;;;3.47;1.50;;;;;;;23.56;52.32;100588.91;9901245;29;20268;-82
2022/07/26 12:05:35;;;;;;;3.10;1.83;;;;;;;24.96;50.76;100593.16;9903500;29;20247;-82
2022/07/26 12:10:37;;;;;;;1.65;0.30;;;;;;;24.34;49.58;100598.59;9882813;29;20241;-82
2022/07/26 12:15:48;;;;;;;0.95;0.30;;;;;;;24.96;47.84;100604.63;9905060;29;20209;-81
2022/07/26 12:20:56;;;;;;;2.38;0.30;;;;;;;25.92;45.90;100594.81;9892022;29;20265;-75
2022/07/26 12:26:22;;;;;;;0.43;0.20;;;;;;;26.33;43.16;100586.00;9907189;29;20209;-81
2022/07/26 12:31:30;;;;;;;0.25;0.10;;;;;;;25.65;45.09;100597.06;9874478;29;20329;-81
2022/07/26 12:36:32;;;;;;;0.28;0.10;;;;;;;26.38;43.88;100595.06;9914918;29;20275;-81
2022/07/26 12:41:37;;;;;;;0.65;0.10;;;;;;;26.93;41.57;100579.63;9899445;30;20233;-80
2022/07/26 12:46:40;;;;;;;0.65;0.10;;;;;;;27.25;41.32;100579.69;9896854;30;20245;-81
2022/07/26 12:51:43;;;;;;;0.08;0.08;;;;;;;24.79;44.80;100585.22;9902819;30;20616;-81
2022/07/26 12:56:45;;;;;;;0.65;0.20;;;;;;;26.27;43.25;100576.97;9904237;30;20229;-81
2022/07/26 13:01:50;;;;;;;0.35;0.10;;;;;;;26.81;41.44;100572.22;9905426;30;20254;-81
2022/07/26 13:06:52;;;;;;;1.17;0.10;;;;;;;25.92;43.17;100580.47;9904644;30;20267;-81
2022/07/26 13:11:55;;;;;;;0.20;0.15;;;;;;;26.23;42.94;100578.16;9902976;30;20253;-80
2022/07/26 13:16:57;;;;;;;0.22;0.10;;;;;;;27.16;39.58;100572.28;9888419;30;20244;-81
2022/07/26 13:22:01;;;;;;;1.10;0.10;;;;;;;25.61;43.36;100590.47;9902790;29;20604;-80
2022/07/26 13:27:04;;;;;;;1.63;0.13;;;;;;;25.93;41.94;100585.00;9875833;29;20225;-80
2022/07/26 13:32:07;;;;;;;1.30;0.10;;;;;;;25.50;43.25;100594.50;9913461;29;20731;-80
2022/07/26 13:37:09;;;;;;;0.57;0.10;;;;;;;24.93;44.72;100599.66;9900489;29;20306;-80
2022/07/26 13:42:12;;;;;;;1.42;0.20;;;;;;;25.39;43.66;100595.25;9912075;29;20317;-80
2022/07/26 13:47:15;;;;;;;1.48;0.20;;;;;;;25.77;41.60;100582.41;9908990;30;20237;-81
2022/07/26 13:52:17;;;;;;;0.88;0.20;;;;;;;26.30;40.94;100575.34;9912984;30;20201;-81
2022/07/26 13:57:19;;;;;;;1.00;0.28;;;;;;;25.44;42.87;100588.28;9905921;30;20290;-80
2022/07/26 14:02:22;;;;;;;1.02;0.25;;;;;;;27.05;40.03;100580.06;9905440;29;20232;-80
2022/07/26 14:07:24;;;;;;;0.30;0.20;;;;;;;26.05;42.73;100580.97;9908079;29;20258;-80
2022/07/26 14:12:26;;;;;;;1.02;0.30;;;;;;;25.09;43.32;100595.34;9906038;29;20236;-80
2022/07/26 14:17:28;;;;;;;0.85;0.30;;;;;;;25.00;44.25;100596.91;9895349;30;20297;-80
2022/07/26 14:22:31;;;;;;;1.08;0.30;;;;;;;26.28;41.30;100592.94;9894546;30;20265;-80
2022/07/26 14:27:33;;;;;;;0.82;0.30;;;;;;;26.17;41.30;100594.94;9909721;30;20275;-81
2022/07/26 14:32:35;;;;;;;0.47;0.30;;;;;;;27.07;39.09;100591.97;9907963;29;20298;-81
2022/07/26 14:37:38;;;;;;;0.40;0.20;;;;;;;26.86;39.86;100592.72;9924122;29;20290;-80
2022/07/26 14:42:46;;;;;;;1.10;0.20;;;;;;;26.10;42.07;100594.88;9907047;30;20274;-80
2022/07/26 14:47:49;;;;;;;0.13;0.10;;;;;;;25.50;42.87;100605.94;9910410;30;20266;-81
2022/07/26 14:52:52;;;;;;;2.03;0.45;;;;;;;25.74;42.83;100599.56;9904350;29;20608;-80
2022/07/26 14:57:54;;;;;;;1.38;0.20;;;;;;;26.54;41.51;100600.44;9909682;29;20310;-80
2022/07/26 15:02:57;;;;;;;3.30;0.20;;;;;;;26.54;41.33;100602.47;9909080;29;20209;-80
2022/07/26 15:07:59;;;;;;;0.70;0.35;;;;;;;26.86;39.63;100607.06;9902613;29;20237;-80
2022/07/26 15:13:08;;;;;;;0.40;0.20;;;;;;;26.82;40.36;100614.03;9911951;29;20237;-81
2022/07/26 15:18:10;;;;;;;0.55;0.10;;;;;;;26.13;38.87;100617.03;9907128;29;20294;-81
2022/07/26 15:23:14;;;;;;;0.45;0.10;;;;;;;26.54;37.26;100611.09;9881099;29;20279;-82
2022/07/26 15:28:16;;;;;;;0.20;0.10;;;;;;;25.91;38.99;100616.09;9898395;29;20245;-81
2022/07/26 15:33:19;;;;;;;0.73;0.20;;;;;;;25.29;40.13;100616.00;9911539;29;20264;-83
2022/07/26 15:38:21;;;;;;;0.98;0.30;;;;;;;25.10;40.73;100624.78;9905389;29;20314;-81
2022/07/26 15:43:24;;;;;;;0.60;0.20;;;;;;;25.95;40.14;100616.91;9908029;29;20201;-81
2022/07/26 15:48:46;;;;;;;1.27;0.30;;;;;;;25.56;41.36;100627.28;9904998;29;20599;-81
2022/07/26 15:53:49;;;;;;;0.88;0.30;;;;;;;26.27;39.50;100627.75;9908765;29;20241;-81
2022/07/26 15:58:51;;;;;;;1.92;0.35;;;;;;;25.65;40.88;100624.88;9893178;29;20333;-81
2022/07/26 16:03:54;;;;;;;0.40;0.30;;;;;;;26.29;39.69;100626.13;9905781;29;20697;-81
2022/07/26 16:08:57;;;;;;;1.30;0.20;;;;;;;26.44;39.28;100621.31;9906176;29;20274;-79
2022/07/26 16:14:19;;;;;;;1.38;0.20;;;;;;;25.19;42.24;100627.34;9910538;30;20323;-78
2022/07/26 16:19:22;;;;;;;0.30;0.15;;;;;;;25.22;43.46;100627.38;9912244;29;20271;-81
2022/07/26 16:24:25;;;;;;;1.27;0.20;;;;;;;25.37;42.32;100619.75;9902804;29;20548;-81
2022/07/26 16:29:28;;;;;;;0.63;0.40;;;;;;;26.00;41.32;100618.59;9914252;29;20201;-79
2022/07/26 16:34:33;;;;;;;2.50;0.30;;;;;;;25.67;41.83;100628.19;9909717;29;20298;-79
2022/07/26 16:39:36;;;;;;;1.23;0.30;;;;;;;25.29;42.18;100624.59;9910912;30;20213;-80
2022/07/26 16:44:40;;;;;;;2.67;0.32;;;;;;;25.08;42.07;100635.78;9897744;30;20277;-80
2022/07/26 16:49:46;;;;;;;1.83;0.30;;;;;;;25.53;40.93;100633.78;9902534;29;20197;-79
2022/07/26 16:54:50;;;;;;;1.88;0.25;;;;;;;25.59;41.41;100630.16;9907149;30;20197;-79
2022/07/26 16:59:53;;;;;;;1.73;0.30;;;;;;;25.21;41.68;100640.03;9910061;29;20205;-80
2022/07/26 17:04:57;;;;;;;0.65;0.40;;;;;;;25.16;41.54;100645.28;9900393;30;20262;-80
2022/07/26 17:09:59;;;;;;;1.50;0.52;;;;;;;25.10;42.03;100648.50;9908089;30;20229;-80
2022/07/26 17:15:03;;;;;;;0.98;0.30;;;;;;;24.99;42.10;100646.75;9901176;29;20620;-81
2022/07/26 17:20:06;;;;;;;2.72;0.20;;;;;;;25.16;42.16;100648.16;9874946;29;20349;-79
2022/07/26 17:25:09;;;;;;;0.82;0.40;;;;;;;24.99;42.76;100646.75;9904560;29;20623;-80
2022/07/26 17:30:12;;;;;;;5.25;0.45;;;;;;;24.76;43.05;100641.19;9901846;29;20260;-79
2022/07/26 17:35:14;;;;;;;1.83;0.30;;;;;;;24.62;43.53;100647.56;9903122;29;20720;-79
2022/07/26 17:40:16;;;;;;;2.35;0.40;;;;;;;25.15;42.16;100650.19;9888058;29;20261;-79
2022/07/26 17:45:19;;;;;;;4.47;0.60;;;;;;;25.20;42.53;100649.03;9903017;29;20829;-79
2022/07/26 17:50:21;;;;;;;3.42;0.50;;;;;;;24.92;42.76;100649.53;9882533;29;20255;-79
2022/07/26 17:55:40;;;;;;;4.68;0.52;;;;;;;25.20;42.94;100646.97;9900765;29;20244;-80
2022/07/26 18:00:42;;;;;;;2.92;0.40;;;;;;;24.69;43.84;100659.09;9899781;29;20257;-79
2022/07/26 18:05:44;;;;;;;3.30;0.57;;;;;;;24.01;45.51;100663.03;9912225;29;20620;-79
2022/07/26 18:10:47;;;;;;;3.63;0.70;;;;;;;24.38;45.40;100656.63;9898957;29;20572;-79
2022/07/26 18:15:53;;;;;;;3.92;0.55;;;;;;;24.13;45.74;100669.75;9886598;29;20298;-79
2022/07/26 18:20:55;;;;;;;5.88;0.95;;;;;;;23.73;46.44;100665.44;9900659;29;20309;-80
2022/07/26 18:25:58;;;;;;;3.53;0.63;;;;;;;24.36;45.20;100661.91;9890125;29;20244;-80
2022/07/26 18:31:00;;;;;;;3.17;0.55;;;;;;;24.49;44.06;100653.91;9902586;29;20309;-80
2022/07/26 18:36:03;;;;;;;2.30;0.60;;;;;;;24.71;44.29;100659.53;9905525;29;20620;-80
2022/07/26 18:41:05;;;;;;;3.83;0.70;;;;;;;24.93;43.69;100654.03;9901251;29;20599;-80
2022/07/26 18:46:08;;;;;;;4.65;0.70;;;;;;;24.60;44.23;100655.72;9884208;29;20254;-80
2022/07/26 18:51:10;;;;;;;2.85;0.60;;;;;;;24.34;45.22;100647.19;9900435;29;20228;-78
2022/07/26 18:56:13;;;;;;;4.28;0.60;;;;;;;25.01;43.33;100645.16;9904726;29;20294;-80
2022/07/26 19:01:15;;;;;;;3.35;0.65;;;;;;;24.81;43.96;100655.13;9904845;29;20333;-80
2022/07/26 19:06:17;;;;;;;6.13;0.80;;;;;;;24.96;43.81;100667.56;9901523;29;20282;-79
2022/07/26 19:11:20;;;;;;;4.10;0.65;;;;;;;24.43;45.17;100667.72;9901997;29;20225;-80
2022/07/26 19:16:22;;;;;;;5.68;1.10;;;;;;;24.16;46.28;100668.97;9901957;29;20305;-80
2022/07/26 19:21:25;;;;;;;6.10;1.08;;;;;;;24.48;45.25;100675.97;9880772;29;20280;-81
2022/07/26 19:26:28;;;;;;;7.68;0.80;;;;;;;23.84;46.93;100689.28;9866225;29;20299;-81
2022/07/26 19:31:30;;;;;;;6.13;1.10;;;;;;;23.61;46.81;100695.03;9907545;29;20261;-80
2022/07/26 19:36:34;;;;;;;3.95;0.90;;;;;;;24.61;44.29;100696.56;9858285;29;20245;-81
2022/07/26 19:41:36;;;;;;;3.55;1.05;;;;;;;24.85;43.55;100696.06;9870221;29;20262;-85
2022/07/26 19:46:39;;;;;;;3.58;1.13;;;;;;;24.84;42.83;100705.03;9872894;29;20237;-79
2022/07/26 19:51:42;;;;;;;4.38;0.73;;;;;;;24.38;43.81;100711.78;9877198;29;20226;-79
2022/07/26 19:56:44;;;;;;;5.85;1.25;;;;;;;24.27;43.35;100707.09;9870874;29;20244;-80
2022/07/26 20:01:48;;;;;;;5.72;1.00;;;;;;;23.93;43.72;100717.59;9900954;29;20305;-79
2022/07/26 20:06:51;;;;;;;4.85;1.10;;;;;;;23.68;43.34;100714.31;9872341;29;20283;-78
2022/07/26 20:11:55;;;;;;;5.32;1.13;;;;;;;22.86;43.86;100724.16;9877740;29;20666;-78
2022/07/26 20:16:57;;;;;;;4.30;1.13;;;;;;;24.08;41.61;100730.09;9864813;29;20204;-79
2022/07/26 20:22:00;;;;;;;5.88;0.88;;;;;;;23.25;42.95;100727.78;9869255;29;20807;-78
2022/07/26 20:27:04;;;;;;;4.25;0.65;;;;;;;23.74;41.80;100731.97;9883729;29;20233;-78
2022/07/26 20:32:06;;;;;;;3.95;0.98;;;;;;;24.02;41.26;100721.00;9868359;29;20265;-78
2022/07/26 20:37:09;;;;;;;5.20;1.10;;;;;;;23.06;42.09;100727.00;9885698;29;20288;-78
2022/07/26 20:42:11;;;;;;;3.38;0.95;;;;;;;23.61;41.76;100731.34;9896596;29;20263;-78
2022/07/26 20:47:22;;;;;;;3.25;0.68;;;;;;;23.47;41.83;100733.94;9885912;29;20269;-78
2022/07/26 20:52:25;;;;;;;5.32;1.00;;;;;;;23.98;40.31;100728.72;9897433;29;20295;-78
2022/07/26 20:57:27;;;;;;;4.18;1.00;;;;;;;23.73;40.46;100741.72;9896999;29;20242;-79
2022/07/26 21:02:30;;;;;;;2.25;0.70;;;;;;;23.80;40.50;100745.50;9903749;29;20308;-78
2022/07/26 21:07:32;;;;;;;5.05;1.05;;;;;;;23.91;39.73;100755.09;9902461;29;20305;-77
2022/07/26 21:12:59;;;;;;;5.22;0.98;;;;;;;23.33;40.63;100755.28;9939060;29;20296;-77
2022/07/26 21:18:02;;;;;;;5.68;0.75;;;;;;;22.85;42.43;100759.56;9907572;29;20504;-78
2022/07/26 21:23:05;;;;;;;3.40;0.70;;;;;;;23.56;39.97;100772.44;9919966;29;20259;-78
2022/07/26 21:28:19;;;;;;;4.88;0.73;;;;;;;22.44;41.01;100772.50;9889987;29;20484;-78
2022/07/26 21:33:25;;;;;;;2.55;0.77;;;;;;;23.12;39.50;100771.94;9910358;29;20953;-77
2022/07/26 21:38:30;;;;;;;2.58;0.55;;;;;;;23.70;38.72;100777.56;9913407;29;20624;-78
2022/07/26 21:43:33;;;;;;;2.92;0.63;;;;;;;23.45;39.54;100782.00;9913415;29;20571;-77
2022/07/26 21:48:35;;;;;;;3.83;0.65;;;;;;;23.62;38.73;100787.19;9881823;29;20643;-77
2022/07/26 21:53:37;;;;;;;3.72;0.77;;;;;;;23.36;38.71;100785.06;9923609;29;20236;-80
2022/07/26 21:58:40;;;;;;;4.32;1.02;;;;;;;23.12;38.55;100806.19;9924829;29;20291;-78
2022/07/26 22:03:42;;;;;;;3.50;0.60;;;;;;;22.53;39.95;100798.75;9900805;29;20253;-78
2022/07/26 22:08:44;;;;;;;4.83;0.70;;;;;;;21.86;41.19;100814.16;9916602;29;20308;-80
2022/07/26 22:13:47;;;;;;;3.50;0.98;;;;;;;22.82;39.74;100810.84;9926090;29;20236;-78
2022/07/26 22:18:49;;;;;;;6.03;0.80;;;;;;;22.25;40.98;100815.19;9896908;29;20582;-78
2022/07/26 22:23:52;;;;;;;3.50;0.65;;;;;;;22.95;39.39;100809.50;9895987;29;20261;-79
2022/07/26 22:28:54;;;;;;;4.47;0.77;;;;;;;22.60;39.94;100816.00;9877962;29;20703;-79
2022/07/26 22:33:56;;;;;;;1.90;0.68;;;;;;;22.49;39.87;100819.81;9883144;29;20268;-80
2022/07/26 22:38:59;;;;;;;4.07;0.70;;;;;;;22.76;39.08;100818.03;9897484;29;20310;-80
2022/07/26 22:44:01;;;;;;;3.20;0.60;;;;;;;23.25;39.05;100813.38;9870294;30;20567;-80
2022/07/26 22:49:03;;;;;;;4.05;0.93;;;;;;;22.72;39.11;100820.78;9902795;29;20694;-80
2022/07/26 22:54:12;;;;;;;6.47;0.98;;;;;;;22.21;40.38;100819.94;9874776;30;20245;-80
2022/07/26 22:59:15;;;;;;;1.73;0.68;;;;;;;22.53;40.24;100821.56;9874328;30;20234;-81
2022/07/26 23:04:17;;;;;;;2.45;0.60;;;;;;;22.22;40.94;100822.44;9878804;29;20270;-79
2022/07/26 23:09:20;;;;;;;2.85;0.65;;;;;;;22.93;38.89;100826.16;9870385;29;20287;-81
2022/07/26 23:14:22;;;;;;;2.88;0.60;;;;;;;22.19;40.05;100826.03;9882182;29;20246;-79
2022/07/26 23:19:25;;;;;;;3.08;0.60;;;;;;;22.21;39.40;100823.63;9874936;29;20242;-79
2022/07/26 23:24:27;;;;;;;2.63;0.60;;;;;;;22.91;38.60;100815.13;9873126;29;20237;-79
2022/07/26 23:29:30;;;;;;;2.72;0.65;;;;;;;23.04;38.50;100823.53;9861197;30;20240;-81
2022/07/26 23:35:33;;;;;;;6.65;0.50;;;;;;;22.80;38.35;100824.66;10485064;28;20603;-80